createdAt,value
2019-03-31T00:02:29.931Z,100375.00
2019-03-31T00:05:06.040Z,100366.00
2019-03-31T00:07:48.469Z,100366.00
2019-03-31T00:10:31.228Z,100354.00
2019-03-31T00:12:59.060Z,100356.00
2019-03-31T00:15:41.061Z,100352.00
2019-03-31T00:18:24.173Z,100359.00
2019-03-31T00:21:06.513Z,100360.00
2019-03-31T00:23:35.250Z,100352.00
2019-03-31T00:28:45.964Z,100357.00
2019-03-31T00:31:35.760Z,100351.00
2019-03-31T00:34:24.474Z,100347.00
2019-03-31T00:37:00.872Z,100359.00
2019-03-31T00:39:43.803Z,100346.00
2019-03-31T00:42:26.535Z,100338.00
2019-03-31T00:45:02.902Z,100334.00
2019-03-31T00:47:44.797Z,100341.00
2019-03-31T00:50:13.456Z,100345.00
2019-03-31T00:52:55.515Z,100346.00
2019-03-31T00:55:44.725Z,100347.00
2019-03-31T00:58:20.294Z,100339.00
2019-03-31T01:06:29.558Z,100344.00
2019-03-31T01:09:29.296Z,100320.00
2019-03-31T01:11:58.882Z,100322.00
2019-03-31T01:14:35.049Z,100321.00
2019-03-31T01:17:07.542Z,100324.00
2019-03-31T01:19:44.295Z,100309.00
2019-03-31T01:22:13.878Z,100314.00
2019-03-31T01:24:49.849Z,100314.00
2019-03-31T01:27:19.748Z,100307.00
2019-03-31T01:29:55.617Z,100304.00
2019-03-31T01:32:25.375Z,100314.00
2019-03-31T01:34:54.882Z,100298.00
2019-03-31T01:37:31.075Z,100298.00
2019-03-31T01:40:00.749Z,100296.00
2019-03-31T01:42:37.013Z,100295.00
2019-03-31T01:45:10.175Z,100301.00
2019-03-31T01:47:46.878Z,100297.00
2019-03-31T01:50:16.627Z,100293.00
2019-03-31T01:52:52.605Z,100290.00
2019-03-31T01:55:22.128Z,100297.00
2019-03-31T01:57:58.681Z,100290.00
2019-03-31T02:00:44.736Z,100287.00
2019-03-31T02:03:20.613Z,100288.00
2019-03-31T02:05:56.603Z,100285.00
2019-03-31T02:08:38.756Z,100280.00
2019-03-31T02:11:14.938Z,100285.00
2019-03-31T02:13:51.178Z,100294.00
2019-03-31T02:16:26.902Z,100288.00
2019-03-31T02:19:09.801Z,100285.00
2019-03-31T02:21:53.338Z,100280.00
2019-03-31T02:24:28.943Z,100282.00
2019-03-31T02:26:58.389Z,100281.00
2019-03-31T02:29:40.766Z,100284.00
2019-03-31T02:32:23.960Z,100278.00
2019-03-31T02:34:54.788Z,100288.00
2019-03-31T02:37:30.720Z,100288.00
2019-03-31T02:40:06.954Z,100293.00
2019-03-31T02:42:43.286Z,100289.00
2019-03-31T02:45:26.530Z,100298.00
2019-03-31T02:48:09.535Z,100298.00
2019-03-31T02:50:56.683Z,100304.00
2019-03-31T02:53:32.308Z,100285.00
2019-03-31T02:56:15.789Z,100287.00
2019-03-31T02:58:54.810Z,100289.00
2019-03-31T03:01:33.653Z,100281.00
2019-03-31T03:04:17.428Z,100284.00
2019-03-31T03:06:49.058Z,100279.00
2019-03-31T03:09:28.522Z,100273.00
2019-03-31T03:12:07.356Z,100279.00
2019-03-31T03:14:51.777Z,100281.00
2019-03-31T03:17:27.344Z,100279.00
2019-03-31T03:20:04.005Z,100281.00
2019-03-31T03:22:40.573Z,100283.00
2019-03-31T03:25:16.231Z,100294.00
2019-03-31T03:27:52.036Z,100290.00
2019-03-31T03:30:34.680Z,100296.00
2019-03-31T03:33:15.580Z,100290.00
2019-03-31T03:35:53.945Z,100285.00
2019-03-31T03:38:29.797Z,100290.00
2019-03-31T03:41:13.242Z,100290.00
2019-03-31T03:43:55.695Z,100289.00
2019-03-31T03:46:34.289Z,100296.00
2019-03-31T03:49:16.803Z,100283.00
2019-03-31T03:51:59.778Z,100286.00
2019-03-31T03:54:36.157Z,100276.00
2019-03-31T03:57:12.013Z,100276.00
2019-03-31T04:00:00.868Z,100275.00
2019-03-31T04:02:30.327Z,100273.00
2019-03-31T04:05:13.557Z,100274.00
2019-03-31T04:07:55.398Z,100282.00
2019-03-31T04:10:54.483Z,100281.00
2019-03-31T04:13:30.257Z,100283.00
2019-03-31T04:16:13.356Z,100283.00
2019-03-31T04:19:02.384Z,100299.00
2019-03-31T04:21:44.364Z,100300.00
2019-03-31T04:24:27.557Z,100295.00
2019-03-31T04:27:18.900Z,100294.00
2019-03-31T04:30:00.846Z,100299.00
2019-03-31T04:32:38.791Z,100308.00
2019-03-31T04:35:22.077Z,100311.00
2019-03-31T04:38:04.736Z,100310.00
2019-03-31T04:40:47.253Z,100315.00
2019-03-31T04:43:30.091Z,100331.00
2019-03-31T04:46:12.025Z,100322.00
2019-03-31T04:48:54.748Z,100330.00
2019-03-31T04:51:37.391Z,100337.00
2019-03-31T04:54:13.846Z,100340.00
2019-03-31T04:56:49.730Z,100343.00
2019-03-31T04:59:32.390Z,100234.00
2019-03-31T05:05:10.265Z,100349.00
2019-03-31T05:07:39.780Z,100356.00
2019-03-31T05:10:15.756Z,100359.00
2019-03-31T05:12:51.461Z,100352.00
2019-03-31T05:15:27.277Z,100357.00
2019-03-31T05:18:03.740Z,100361.00
2019-03-31T05:20:40.300Z,100362.00
2019-03-31T05:23:22.865Z,100364.00
2019-03-31T05:25:52.455Z,100371.00
2019-03-31T05:28:28.314Z,100372.00
2019-03-31T05:30:57.898Z,100378.00
2019-03-31T05:33:34.002Z,100375.00
2019-03-31T05:36:03.534Z,100375.00
2019-03-31T05:38:39.628Z,100379.00
2019-03-31T05:41:09.082Z,100383.00
2019-03-31T05:43:44.858Z,100376.00
2019-03-31T05:46:14.386Z,100378.00
2019-03-31T05:48:50.053Z,100387.00
2019-03-31T05:51:19.570Z,100385.00
2019-03-31T05:53:55.429Z,100385.00
2019-03-31T05:56:24.890Z,100386.00
2019-03-31T05:59:00.721Z,100391.00
2019-03-31T06:01:30.390Z,100396.00
2019-03-31T06:04:12.482Z,100388.00
2019-03-31T06:06:48.095Z,100391.00
2019-03-31T06:09:30.234Z,100398.00
2019-03-31T06:11:59.760Z,100396.00
2019-03-31T06:14:42.075Z,100405.00
2019-03-31T06:17:18.094Z,100409.00
2019-03-31T06:20:00.610Z,100411.00
2019-03-31T06:22:36.642Z,100411.00
2019-03-31T06:25:20.619Z,100403.00
2019-03-31T06:27:56.732Z,100402.00
2019-03-31T06:30:32.591Z,100408.00
2019-03-31T06:33:08.380Z,100412.00
2019-03-31T06:35:51.638Z,100407.00
2019-03-31T06:38:27.972Z,100414.00
2019-03-31T06:41:04.454Z,100412.00
2019-03-31T06:43:40.160Z,100423.00
2019-03-31T06:46:16.217Z,100425.00
2019-03-31T06:48:59.202Z,100438.00
2019-03-31T06:51:48.260Z,100430.00
2019-03-31T06:54:31.033Z,100432.00
2019-03-31T06:57:06.810Z,100442.00
2019-03-31T06:59:49.825Z,100444.00
2019-03-31T07:02:31.936Z,100441.00
2019-03-31T07:05:15.613Z,100444.00
2019-03-31T07:07:51.597Z,100440.00
2019-03-31T07:10:34.379Z,100444.00
2019-03-31T07:13:10.994Z,100456.00
2019-03-31T07:15:53.560Z,100468.00
2019-03-31T07:18:42.972Z,100469.00
2019-03-31T07:21:25.820Z,100472.00
2019-03-31T07:24:08.566Z,100475.00
2019-03-31T07:26:44.044Z,100486.00
2019-03-31T07:29:26.851Z,100481.00
2019-03-31T07:32:03.044Z,100480.00
2019-03-31T07:34:45.731Z,100486.00
2019-03-31T07:37:27.371Z,100472.00
2019-03-31T07:40:10.377Z,100504.00
2019-03-31T07:42:46.700Z,100484.00
2019-03-31T07:45:30.719Z,100499.00
2019-03-31T07:48:08.133Z,100503.00
2019-03-31T07:50:50.612Z,100496.00
2019-03-31T07:53:39.814Z,100498.00
2019-03-31T07:56:16.398Z,100490.00
2019-03-31T07:58:59.404Z,100509.00
2019-03-31T08:01:42.577Z,100515.00
2019-03-31T08:04:19.246Z,100527.00
2019-03-31T08:07:02.300Z,100521.00
2019-03-31T08:09:45.485Z,100528.00
2019-03-31T08:12:28.575Z,100529.00
2019-03-31T08:15:04.109Z,100524.00
2019-03-31T08:17:46.466Z,100525.00
2019-03-31T08:20:25.181Z,100523.00
2019-03-31T08:23:07.407Z,100526.00
2019-03-31T08:25:42.919Z,100525.00
2019-03-31T08:28:25.944Z,100535.00
2019-03-31T08:31:01.964Z,100538.00
2019-03-31T08:33:43.934Z,100540.00
2019-03-31T08:36:19.631Z,100540.00
2019-03-31T08:39:01.970Z,100550.00
2019-03-31T08:41:44.282Z,100536.00
2019-03-31T08:44:33.254Z,100541.00
2019-03-31T08:47:29.216Z,100547.00
2019-03-31T08:50:11.462Z,100542.00
2019-03-31T08:53:01.163Z,100555.00
2019-03-31T08:55:37.651Z,100573.00
2019-03-31T08:58:20.786Z,100560.00
2019-03-31T09:00:58.387Z,100568.00
2019-03-31T09:03:41.127Z,100564.00
2019-03-31T09:06:23.944Z,100562.00
2019-03-31T09:09:00.257Z,100562.00
2019-03-31T09:11:42.841Z,100568.00
2019-03-31T09:14:19.587Z,100570.00
2019-03-31T09:17:02.247Z,100576.00
2019-03-31T09:19:38.386Z,100569.00
2019-03-31T09:22:21.080Z,100569.00
2019-03-31T09:25:03.705Z,100576.00
2019-03-31T09:27:40.201Z,100581.00
2019-03-31T09:30:25.331Z,100581.00
2019-03-31T09:33:01.245Z,100582.00
2019-03-31T09:35:44.472Z,100588.00
2019-03-31T09:38:34.297Z,100586.00
2019-03-31T09:41:09.960Z,100594.00
2019-03-31T09:43:52.826Z,100587.00
2019-03-31T09:46:28.627Z,100590.00
2019-03-31T09:49:11.600Z,100594.00
2019-03-31T09:51:54.887Z,100600.00
2019-03-31T09:54:37.917Z,100608.00
2019-03-31T09:57:13.642Z,100603.00
2019-03-31T09:59:49.218Z,100606.00
2019-03-31T10:02:32.270Z,100622.00
2019-03-31T10:05:23.070Z,100619.00
2019-03-31T10:08:05.997Z,100606.00
2019-03-31T10:10:42.628Z,100629.00
2019-03-31T10:13:26.513Z,100627.00
2019-03-31T10:16:09.000Z,100638.00
2019-03-31T10:18:52.130Z,100642.00
2019-03-31T10:21:28.342Z,100629.00
2019-03-31T10:24:11.205Z,100638.00
2019-03-31T10:26:47.018Z,100629.00
2019-03-31T10:29:29.554Z,100645.00
2019-03-31T10:32:12.427Z,100645.00
2019-03-31T10:34:55.346Z,100654.00
2019-03-31T10:37:37.277Z,100645.00
2019-03-31T10:40:15.596Z,100654.00
2019-03-31T10:42:57.968Z,100655.00
2019-03-31T10:45:34.168Z,100667.00
2019-03-31T10:48:20.946Z,100665.00
2019-03-31T10:50:55.088Z,100666.00
2019-03-31T10:53:38.999Z,100592.00
2019-03-31T10:56:21.408Z,100669.00
2019-03-31T10:59:03.658Z,100684.00
2019-03-31T11:01:46.586Z,100690.00
2019-03-31T11:04:28.979Z,100682.00
2019-03-31T11:07:05.134Z,100694.00
2019-03-31T11:09:41.029Z,100691.00
2019-03-31T11:12:23.653Z,100697.00
2019-03-31T11:15:06.546Z,100709.00
2019-03-31T11:17:49.724Z,100708.00
2019-03-31T11:20:32.958Z,100705.00
2019-03-31T11:23:28.245Z,100714.00
2019-03-31T11:26:10.108Z,100717.00
2019-03-31T11:28:53.048Z,100712.00
2019-03-31T11:31:28.698Z,100714.00
2019-03-31T11:34:10.815Z,100720.00
2019-03-31T11:36:53.320Z,100732.00
2019-03-31T11:39:29.015Z,100731.00
2019-03-31T11:42:11.541Z,100738.00
2019-03-31T11:44:47.624Z,100741.00
2019-03-31T11:47:30.850Z,100735.00
2019-03-31T11:50:13.912Z,100743.00
2019-03-31T11:52:56.583Z,100742.00
2019-03-31T11:55:39.629Z,100735.00
2019-03-31T11:58:22.462Z,100736.00
2019-03-31T12:00:59.818Z,100740.00
2019-03-31T12:03:35.909Z,100749.00
2019-03-31T12:06:25.844Z,100749.00
2019-03-31T12:09:08.543Z,100752.00
2019-03-31T12:11:45.769Z,100760.00
2019-03-31T12:14:29.510Z,100759.00
2019-03-31T12:17:05.934Z,100764.00
2019-03-31T12:19:49.035Z,100761.00
2019-03-31T12:22:32.099Z,100761.00
2019-03-31T12:25:22.174Z,100754.00
2019-03-31T12:27:58.075Z,100760.00
2019-03-31T12:30:44.218Z,100761.00
2019-03-31T12:33:27.367Z,100764.00
2019-03-31T12:36:09.810Z,100766.00
2019-03-31T12:38:45.753Z,100764.00
2019-03-31T12:41:28.903Z,100764.00
2019-03-31T12:44:04.841Z,100768.00
2019-03-31T12:46:47.586Z,100771.00
2019-03-31T12:49:29.860Z,100766.00
2019-03-31T12:52:06.321Z,100771.00
2019-03-31T12:54:49.905Z,100770.00
2019-03-31T12:57:26.307Z,100771.00
2019-03-31T13:00:08.878Z,100768.00
2019-03-31T13:02:51.678Z,100774.00
2019-03-31T13:05:35.148Z,100763.00
2019-03-31T13:08:18.024Z,100776.00
2019-03-31T13:10:53.527Z,100772.00
2019-03-31T13:13:35.942Z,100773.00
2019-03-31T13:16:12.054Z,100775.00
2019-03-31T13:18:54.643Z,100766.00
2019-03-31T13:21:44.092Z,100780.00
2019-03-31T13:24:19.737Z,100774.00
2019-03-31T13:27:03.028Z,100775.00
2019-03-31T13:29:45.287Z,100781.00
2019-03-31T13:32:21.968Z,100771.00
2019-03-31T13:35:08.244Z,100779.00
2019-03-31T13:37:49.909Z,100772.00
2019-03-31T13:40:25.468Z,100786.00
2019-03-31T13:43:08.191Z,100792.00
2019-03-31T13:45:44.720Z,100794.00
2019-03-31T13:48:27.301Z,100792.00
2019-03-31T13:51:09.811Z,100800.00
2019-03-31T13:53:45.728Z,100801.00
2019-03-31T13:56:21.545Z,100808.00
2019-03-31T13:59:03.988Z,100795.00
2019-03-31T14:01:40.056Z,100799.00
2019-03-31T14:04:22.564Z,100799.00
2019-03-31T14:06:58.179Z,100812.00
2019-03-31T14:09:41.155Z,100811.00
2019-03-31T14:12:43.852Z,100818.00
2019-03-31T14:15:33.127Z,100825.00
2019-03-31T14:18:15.841Z,100817.00
2019-03-31T14:20:52.317Z,100830.00
2019-03-31T14:23:34.336Z,100825.00
2019-03-31T14:26:10.867Z,100823.00
2019-03-31T14:28:53.518Z,100823.00
2019-03-31T14:31:32.378Z,100834.00
2019-03-31T14:34:14.559Z,100837.00
2019-03-31T14:36:50.824Z,100839.00
2019-03-31T14:39:33.501Z,100851.00
2019-03-31T14:42:15.862Z,100851.00
2019-03-31T14:44:57.948Z,100860.00
2019-03-31T14:47:34.741Z,100861.00
2019-03-31T14:50:28.776Z,100863.00
2019-03-31T14:53:12.725Z,100869.00
2019-03-31T14:55:54.869Z,100870.00
2019-03-31T14:58:37.894Z,100870.00
2019-03-31T15:01:14.377Z,100878.00
2019-03-31T15:03:56.273Z,100876.00
2019-03-31T15:06:39.108Z,100875.00
2019-03-31T15:09:28.649Z,100884.00
2019-03-31T15:12:11.157Z,100887.00
2019-03-31T15:14:47.294Z,100887.00
2019-03-31T15:17:29.473Z,100913.00
2019-03-31T15:20:12.503Z,100900.00
2019-03-31T15:22:55.340Z,100900.00
2019-03-31T15:25:38.185Z,100901.00
2019-03-31T15:28:27.241Z,100905.00
2019-03-31T15:31:09.268Z,100913.00
2019-03-31T15:33:51.801Z,100924.00
2019-03-31T15:36:34.435Z,100917.00
2019-03-31T15:39:12.121Z,100924.00
2019-03-31T15:41:54.129Z,100923.00
2019-03-31T15:44:30.434Z,100914.00
2019-03-31T15:47:13.016Z,100934.00
2019-03-31T15:49:49.054Z,100928.00
2019-03-31T15:52:32.401Z,100939.00
2019-03-31T15:55:08.415Z,100938.00
2019-03-31T15:57:52.214Z,100943.00
2019-03-31T16:00:29.643Z,100949.00
2019-03-31T16:03:12.055Z,100944.00
2019-03-31T16:05:55.014Z,100941.00
2019-03-31T16:08:31.379Z,100948.00
2019-03-31T16:11:14.074Z,100947.00
2019-03-31T16:13:57.122Z,100952.00
2019-03-31T16:16:46.581Z,100963.00
2019-03-31T16:19:29.223Z,100961.00
2019-03-31T16:22:05.469Z,100964.00
2019-03-31T16:24:49.701Z,100974.00
2019-03-31T16:27:25.768Z,100966.00
2019-03-31T16:30:08.691Z,100972.00
2019-03-31T16:32:44.356Z,100977.00
2019-03-31T16:35:26.907Z,100977.00
2019-03-31T16:38:03.761Z,100981.00
2019-03-31T16:40:46.825Z,100989.00
2019-03-31T16:43:22.708Z,100978.00
2019-03-31T16:46:04.914Z,100990.00
2019-03-31T16:48:41.265Z,100990.00
2019-03-31T16:51:24.636Z,100987.00
2019-03-31T16:54:07.136Z,100996.00
2019-03-31T16:56:49.679Z,100995.00
2019-03-31T16:59:32.433Z,101006.00
2019-03-31T17:02:08.388Z,101004.00
2019-03-31T17:04:50.855Z,101009.00
2019-03-31T17:07:33.497Z,101017.00
2019-03-31T17:10:10.369Z,101016.00
2019-03-31T17:12:52.996Z,101015.00
2019-03-31T17:15:28.718Z,101023.00
2019-03-31T17:18:11.613Z,101025.00
2019-03-31T17:20:53.912Z,101016.00
2019-03-31T17:23:43.027Z,101030.00
2019-03-31T17:26:25.273Z,101035.00
2019-03-31T17:29:00.918Z,101035.00
2019-03-31T17:31:43.677Z,101046.00
2019-03-31T17:34:25.985Z,101043.00
2019-03-31T17:37:09.036Z,101044.00
2019-03-31T17:40:05.438Z,101056.00
2019-03-31T17:42:30.100Z,101056.00
2019-03-31T17:45:12.370Z,101065.00
2019-03-31T17:47:48.212Z,101054.00
2019-03-31T17:50:31.177Z,101061.00
2019-03-31T17:53:13.760Z,101067.00
2019-03-31T17:55:56.824Z,101067.00
2019-03-31T17:58:32.363Z,101066.00
2019-03-31T18:01:15.547Z,101070.00
2019-03-31T18:03:57.474Z,101085.00
2019-03-31T18:06:40.025Z,101089.00
2019-03-31T18:09:15.713Z,101089.00
2019-03-31T18:11:58.274Z,101095.00
2019-03-31T18:14:34.072Z,101100.00
2019-03-31T18:17:16.537Z,101102.00
2019-03-31T18:20:05.154Z,101111.00
2019-03-31T18:22:47.054Z,101113.00
2019-03-31T18:25:29.835Z,101114.00
2019-03-31T18:28:12.167Z,101117.00
2019-03-31T18:30:48.519Z,101119.00
2019-03-31T18:33:31.493Z,101120.00
2019-03-31T18:36:14.838Z,101125.00
2019-03-31T18:38:50.607Z,101131.00
2019-03-31T18:41:32.805Z,101140.00
2019-03-31T18:44:15.305Z,101140.00
2019-03-31T18:46:51.183Z,101076.00
2019-03-31T18:49:33.921Z,101148.00
2019-03-31T18:52:10.024Z,101160.00
2019-03-31T18:54:56.458Z,101156.00
2019-03-31T18:57:56.790Z,101156.00
2019-03-31T19:00:34.392Z,101159.00
2019-03-31T19:03:22.108Z,101164.00
2019-03-31T19:06:15.377Z,101160.00
2019-03-31T19:09:15.274Z,101173.00
2019-03-31T19:12:11.485Z,101167.00
2019-03-31T19:14:49.567Z,101174.00
2019-03-31T19:17:33.766Z,101165.00
2019-03-31T19:20:13.992Z,101169.00
2019-03-31T19:23:04.609Z,101172.00
2019-03-31T19:25:41.806Z,101176.00
2019-03-31T19:28:33.466Z,101187.00
2019-03-31T19:31:18.354Z,101197.00
2019-03-31T19:34:11.085Z,101185.00
2019-03-31T19:36:57.863Z,101189.00
2019-03-31T19:39:57.730Z,101188.00
2019-03-31T19:42:48.713Z,101199.00
2019-03-31T19:45:38.467Z,101203.00
2019-03-31T19:48:38.980Z,101205.00
2019-03-31T19:51:21.602Z,101205.00
2019-03-31T19:54:05.916Z,101195.00
2019-03-31T19:56:43.291Z,101217.00
2019-03-31T19:59:34.525Z,101215.00
2019-03-31T20:02:25.619Z,101223.00
2019-03-31T20:05:17.823Z,101214.00
2019-03-31T20:08:14.744Z,101210.00
2019-03-31T20:11:14.945Z,101210.00
2019-03-31T20:13:52.575Z,101211.00
2019-03-31T20:16:43.123Z,101218.00
2019-03-31T20:19:23.749Z,101225.00
2019-03-31T20:22:11.253Z,101226.00
2019-03-31T20:24:49.561Z,101221.00
2019-03-31T20:27:37.084Z,101226.00
2019-03-31T20:30:19.219Z,101225.00
2019-03-31T20:33:15.733Z,101237.00
2019-03-31T20:36:02.207Z,101246.00
2019-03-31T20:38:55.428Z,101247.00
2019-03-31T20:41:34.475Z,101248.00
2019-03-31T20:44:16.244Z,101254.00
2019-03-31T20:46:58.428Z,101249.00
2019-03-31T20:49:40.639Z,101245.00
2019-03-31T20:52:16.983Z,101250.00
2019-03-31T20:54:59.640Z,101257.00
2019-03-31T20:57:42.020Z,101259.00
2019-03-31T21:00:31.461Z,101257.00
2019-03-31T21:03:07.213Z,101257.00
2019-03-31T21:05:43.329Z,101259.00
2019-03-31T21:08:27.790Z,101261.00
2019-03-31T21:11:04.252Z,101260.00
2019-03-31T21:13:47.470Z,101267.00
2019-03-31T21:16:22.902Z,101269.00
2019-03-31T21:19:05.881Z,101276.00
2019-03-31T21:21:48.351Z,101274.00
2019-03-31T21:24:31.247Z,101276.00
2019-03-31T21:27:13.599Z,101275.00
2019-03-31T21:29:56.767Z,101272.00
2019-03-31T21:32:32.357Z,101271.00
2019-03-31T21:35:15.476Z,101275.00
2019-03-31T21:37:51.016Z,101283.00
2019-03-31T21:40:33.595Z,101271.00
2019-03-31T21:43:15.915Z,101265.00
2019-03-31T21:46:00.161Z,101268.00
2019-03-31T21:48:35.708Z,101276.00
2019-03-31T21:51:18.809Z,101284.00
2019-03-31T21:53:54.576Z,101278.00
2019-03-31T21:56:37.000Z,101282.00
2019-03-31T21:59:19.749Z,101283.00
2019-03-31T22:01:55.531Z,101280.00
2019-03-31T22:04:44.329Z,101278.00
2019-03-31T22:07:27.331Z,101284.00
2019-03-31T22:10:10.055Z,101277.00
2019-03-31T22:12:52.675Z,101283.00
2019-03-31T22:15:28.783Z,101284.00
2019-03-31T22:18:11.001Z,101304.00
2019-03-31T22:20:47.645Z,101286.00
2019-03-31T22:23:29.954Z,101294.00
2019-03-31T22:26:05.480Z,101293.00
2019-03-31T22:28:48.135Z,101291.00
2019-03-31T22:31:24.488Z,101292.00
2019-03-31T22:34:06.377Z,101299.00
2019-03-31T22:36:42.318Z,101296.00
2019-03-31T22:39:24.636Z,101294.00
2019-03-31T22:42:00.454Z,101299.00
2019-03-31T22:44:42.146Z,101302.00
2019-03-31T22:47:18.545Z,101311.00
2019-03-31T22:50:01.160Z,101306.00
2019-03-31T22:52:36.989Z,101295.00
2019-03-31T22:55:20.213Z,101297.00
2019-03-31T22:58:03.296Z,101293.00
2019-03-31T23:00:38.929Z,101295.00
2019-03-31T23:03:22.113Z,101298.00
2019-03-31T23:06:04.276Z,101296.00
2019-03-31T23:08:40.420Z,101311.00
2019-03-31T23:11:22.710Z,101303.00
2019-03-31T23:13:58.361Z,101304.00
2019-03-31T23:16:40.768Z,101306.00
2019-03-31T23:19:17.050Z,101307.00
2019-03-31T23:21:53.108Z,101311.00
2019-03-31T23:24:28.560Z,101304.00
2019-03-31T23:27:05.018Z,101319.00
2019-03-31T23:29:41.453Z,101322.00
2019-03-31T23:32:23.639Z,101330.00
2019-03-31T23:34:59.512Z,101332.00
2019-03-31T23:37:42.355Z,101337.00
2019-03-31T23:40:18.852Z,101335.00
2019-03-31T23:43:01.495Z,101329.00
2019-03-31T23:45:37.535Z,101326.00
2019-03-31T23:48:19.734Z,101324.00
2019-03-31T23:50:56.065Z,101335.00
2019-03-31T23:53:38.989Z,101337.00
2019-03-31T23:56:21.262Z,101335.00
2019-03-31T23:59:10.859Z,101336.00
